createdAt,value
2023-02-23T00:00:37.251Z,95945.91
2023-02-23T00:03:05.731Z,95949.31
2023-02-23T00:05:38.201Z,95945.75
2023-02-23T00:11:00.619Z,95943.22
2023-02-23T00:13:29.251Z,95945.06
2023-02-23T00:15:58.863Z,95948.50
2023-02-23T00:18:30.144Z,95945.69
2023-02-23T00:20:58.772Z,95946.81
2023-02-23T00:23:27.426Z,95948.78
2023-02-23T00:25:59.425Z,95944.38
2023-02-23T00:28:27.706Z,95936.75
2023-02-23T00:30:55.967Z,95943.34
2023-02-23T00:33:25.670Z,95943.00
2023-02-23T00:35:55.558Z,95946.53
2023-02-23T00:38:23.801Z,95949.28
2023-02-23T00:40:52.025Z,95942.06
2023-02-23T00:43:23.858Z,95950.31
2023-02-23T00:45:56.584Z,95950.47
2023-02-23T00:48:28.728Z,95954.09
2023-02-23T00:50:59.866Z,95949.97
2023-02-23T00:53:28.082Z,95945.50
2023-02-23T00:55:57.350Z,95946.97
2023-02-23T00:58:25.984Z,95946.19
2023-02-23T01:00:54.997Z,95943.38
2023-02-23T01:03:23.259Z,95947.03
2023-02-23T01:05:52.831Z,95939.91
2023-02-23T01:08:20.999Z,95943.19
2023-02-23T01:10:53.689Z,95944.00
2023-02-23T01:13:22.091Z,95946.16
2023-02-23T01:15:52.270Z,95946.66
2023-02-23T01:18:21.787Z,95945.00
2023-02-23T01:20:50.948Z,95944.84
2023-02-23T01:23:21.218Z,95939.91
2023-02-23T01:25:49.506Z,95945.00
2023-02-23T01:28:17.802Z,95945.81
2023-02-23T01:30:46.146Z,95943.38
2023-02-23T01:33:16.499Z,95944.53
2023-02-23T01:35:44.691Z,95944.00
2023-02-23T01:38:13.712Z,95940.41
2023-02-23T01:40:44.250Z,95941.22
2023-02-23T01:43:14.444Z,95944.34
2023-02-23T01:45:43.350Z,95932.31
2023-02-23T01:48:14.148Z,95932.47
2023-02-23T01:50:49.462Z,95932.09
2023-02-23T01:53:18.409Z,95939.38
2023-02-23T01:55:49.957Z,95930.47
2023-02-23T01:58:19.948Z,95929.16
2023-02-23T02:00:50.813Z,95930.78
2023-02-23T02:03:26.583Z,95938.38
2023-02-23T02:05:56.821Z,95934.13
2023-02-23T02:08:26.756Z,95929.97
2023-02-23T02:10:57.406Z,95931.50
2023-02-23T02:13:26.237Z,95931.00
2023-02-23T02:16:25.109Z,95931.34
2023-02-23T02:19:06.061Z,95935.06
2023-02-23T02:21:54.155Z,95928.31
2023-02-23T02:24:41.138Z,95929.69
2023-02-23T02:27:19.721Z,95921.72
2023-02-23T02:30:23.988Z,95915.63
2023-02-23T02:33:19.156Z,95923.56
2023-02-23T02:36:20.101Z,95911.84
2023-02-23T02:38:55.010Z,95919.06
2023-02-23T02:41:35.341Z,95926.69
2023-02-23T02:44:07.921Z,95928.84
2023-02-23T02:46:38.718Z,95920.56
2023-02-23T02:49:11.635Z,95920.44
2023-02-23T02:51:44.668Z,95917.59
2023-02-23T02:54:21.385Z,95923.88
2023-02-23T02:56:50.916Z,95927.16
2023-02-23T02:59:38.309Z,95924.06
2023-02-23T03:02:24.758Z,95917.97
2023-02-23T03:05:10.595Z,95911.69
2023-02-23T03:08:02.032Z,95919.94
2023-02-23T03:10:55.328Z,95917.25
2023-02-23T03:13:46.174Z,95925.38
2023-02-23T03:16:40.613Z,95928.03
2023-02-23T03:19:32.397Z,95933.09
2023-02-23T03:22:24.870Z,95935.91
2023-02-23T03:25:15.679Z,95939.81
2023-02-23T03:28:03.350Z,95935.06
2023-02-23T03:30:56.235Z,95949.00
2023-02-23T03:33:49.257Z,95945.31
2023-02-23T03:36:38.702Z,95946.25
2023-02-23T03:39:31.611Z,95943.56
2023-02-23T03:42:19.138Z,95939.69
2023-02-23T03:45:07.464Z,95943.22
2023-02-23T03:47:56.381Z,95937.50
2023-02-23T03:50:47.042Z,95942.50
2023-02-23T03:53:34.794Z,95938.56
2023-02-23T03:56:20.812Z,95945.63
2023-02-23T03:59:09.849Z,95944.09
2023-02-23T04:01:57.555Z,95946.66
2023-02-23T04:04:44.594Z,95944.56
2023-02-23T04:07:32.513Z,95953.03
2023-02-23T04:10:18.470Z,95949.41
2023-02-23T04:13:10.930Z,95953.56
2023-02-23T04:15:39.734Z,95952.38
2023-02-23T04:18:13.734Z,95957.75
2023-02-23T04:20:42.005Z,95956.81
2023-02-23T04:23:10.351Z,95955.88
2023-02-23T04:25:38.574Z,95958.88
2023-02-23T04:28:07.031Z,95961.53
2023-02-23T04:30:35.477Z,95951.97
2023-02-23T04:33:04.074Z,95957.44
2023-02-23T04:35:33.720Z,95959.47
2023-02-23T04:38:02.033Z,95960.22
2023-02-23T04:40:30.836Z,95962.06
2023-02-23T04:42:59.181Z,95952.75
2023-02-23T04:45:28.525Z,95951.84
2023-02-23T04:47:56.811Z,95956.13
2023-02-23T04:50:25.112Z,95952.47
2023-02-23T04:52:54.762Z,95956.50
2023-02-23T04:55:24.280Z,95950.78
2023-02-23T04:57:52.888Z,95950.75
2023-02-23T05:00:21.378Z,95948.94
2023-02-23T05:02:50.703Z,95949.91
2023-02-23T05:05:19.748Z,95950.22
2023-02-23T05:07:48.106Z,95960.75
2023-02-23T05:10:17.968Z,95961.19
2023-02-23T05:12:47.021Z,95959.13
2023-02-23T05:15:15.410Z,95957.00
2023-02-23T05:17:43.974Z,95963.22
2023-02-23T05:20:13.926Z,95952.00
2023-02-23T05:22:42.719Z,95954.94
2023-02-23T05:25:11.988Z,95958.41
2023-02-23T05:27:41.636Z,95960.22
2023-02-23T05:30:11.192Z,95957.19
2023-02-23T05:32:39.545Z,95964.63
2023-02-23T05:35:09.054Z,95970.06
2023-02-23T05:37:37.430Z,95971.63
2023-02-23T05:40:06.648Z,95969.44
2023-02-23T05:42:34.916Z,95972.41
2023-02-23T05:45:05.052Z,95965.94
2023-02-23T05:47:35.469Z,95971.72
2023-02-23T05:50:03.758Z,95965.22
2023-02-23T05:52:32.004Z,95966.41
2023-02-23T05:55:00.331Z,95972.31
2023-02-23T05:57:28.580Z,95970.53
2023-02-23T05:59:56.814Z,95971.56
2023-02-23T06:02:26.410Z,95973.34
2023-02-23T06:04:55.915Z,95974.72
2023-02-23T06:07:24.149Z,95981.00
2023-02-23T06:09:52.438Z,95972.53
2023-02-23T06:12:20.682Z,95981.16
2023-02-23T06:14:50.725Z,95982.22
2023-02-23T06:17:18.982Z,95978.69
2023-02-23T06:19:48.922Z,95977.69
2023-02-23T06:22:18.275Z,95985.69
2023-02-23T06:24:46.494Z,95988.69
2023-02-23T06:27:15.080Z,95989.69
2023-02-23T06:29:43.318Z,95986.63
2023-02-23T06:32:11.780Z,95985.22
2023-02-23T06:34:40.509Z,95987.16
2023-02-23T06:37:10.409Z,95985.13
2023-02-23T06:39:38.668Z,95990.94
2023-02-23T06:42:06.922Z,95990.75
2023-02-23T06:44:35.874Z,95994.44
2023-02-23T06:47:06.545Z,95998.22
2023-02-23T06:49:34.652Z,96005.56
2023-02-23T06:52:02.825Z,96004.28
2023-02-23T06:54:34.221Z,96006.16
2023-02-23T06:57:02.534Z,96004.91
2023-02-23T06:59:31.445Z,96004.44
2023-02-23T07:01:59.690Z,96006.34
2023-02-23T07:04:27.949Z,96008.25
2023-02-23T07:06:56.158Z,96013.84
2023-02-23T07:09:24.377Z,96008.47
2023-02-23T07:11:53.987Z,96016.88
2023-02-23T07:14:26.882Z,96014.94
2023-02-23T07:16:55.776Z,96012.63
2023-02-23T07:19:24.386Z,96005.22
2023-02-23T07:21:53.536Z,96006.44
2023-02-23T07:24:22.003Z,96016.41
2023-02-23T07:26:50.298Z,96017.41
2023-02-23T07:29:20.019Z,96004.81
2023-02-23T07:31:50.152Z,96008.13
2023-02-23T07:34:18.543Z,96008.59
2023-02-23T07:36:46.839Z,96005.09
2023-02-23T07:39:15.074Z,96006.75
2023-02-23T07:41:43.296Z,96014.63
2023-02-23T07:44:11.492Z,96009.31
2023-02-23T07:46:41.856Z,96014.09
2023-02-23T07:49:10.097Z,96003.59
2023-02-23T07:51:38.332Z,96012.81
2023-02-23T07:54:07.137Z,96021.75
2023-02-23T07:56:35.644Z,96015.53
2023-02-23T07:59:04.210Z,96020.84
2023-02-23T08:01:32.497Z,96020.66
2023-02-23T08:04:02.162Z,96023.63
2023-02-23T08:06:31.491Z,96017.94
2023-02-23T08:09:00.202Z,96020.75
2023-02-23T08:11:29.612Z,96023.03
2023-02-23T08:14:00.201Z,96021.00
2023-02-23T08:16:28.574Z,96013.94
2023-02-23T08:18:58.311Z,96022.94
2023-02-23T08:21:29.312Z,96017.28
2023-02-23T08:23:58.133Z,96020.81
2023-02-23T08:26:26.803Z,96028.91
2023-02-23T08:28:55.524Z,96027.06
2023-02-23T08:31:25.152Z,96023.97
2023-02-23T08:33:54.148Z,96026.47
2023-02-23T08:36:22.364Z,96033.50
2023-02-23T08:38:51.996Z,96026.19
2023-02-23T08:41:20.681Z,96024.72
2023-02-23T08:43:49.787Z,96027.38
2023-02-23T08:46:20.199Z,96029.97
2023-02-23T08:48:48.439Z,96025.88
2023-02-23T08:51:17.978Z,96032.66
2023-02-23T08:53:46.443Z,96024.88
2023-02-23T08:56:16.384Z,96021.22
2023-02-23T08:58:44.657Z,96023.25
2023-02-23T09:01:18.484Z,96028.97
2023-02-23T09:03:47.090Z,96033.81
2023-02-23T09:06:17.634Z,96029.13
2023-02-23T09:08:45.905Z,96023.38
2023-02-23T09:11:14.176Z,96022.41
2023-02-23T09:13:44.545Z,96020.75
2023-02-23T09:16:13.089Z,96028.84
2023-02-23T09:18:41.933Z,96028.09
2023-02-23T09:21:18.877Z,96020.78
2023-02-23T09:23:49.752Z,96019.25
2023-02-23T09:26:18.859Z,96027.50
2023-02-23T09:28:48.752Z,96032.53
2023-02-23T09:31:19.014Z,96031.56
2023-02-23T09:33:47.644Z,96038.63
2023-02-23T09:36:17.282Z,96028.31
2023-02-23T09:38:46.136Z,96028.88
2023-02-23T09:41:42.756Z,96031.84
2023-02-23T09:44:17.793Z,96030.69
2023-02-23T09:46:53.246Z,96031.38
2023-02-23T09:49:24.436Z,96038.72
2023-02-23T09:51:57.683Z,96036.91
2023-02-23T09:54:29.564Z,96039.50
2023-02-23T09:56:58.482Z,96039.69
2023-02-23T09:59:28.814Z,96044.34
2023-02-23T10:02:01.773Z,96042.13
2023-02-23T10:04:32.306Z,96039.06
2023-02-23T10:07:03.117Z,96044.66
2023-02-23T10:09:43.598Z,96042.78
2023-02-23T10:12:12.839Z,96042.53
2023-02-23T10:15:00.703Z,96035.53
2023-02-23T10:17:37.560Z,96032.53
2023-02-23T10:20:15.358Z,96041.88
2023-02-23T10:22:44.543Z,96041.03
2023-02-23T10:25:14.785Z,96040.94
2023-02-23T10:27:45.486Z,96037.84
2023-02-23T10:30:24.172Z,96044.75
2023-02-23T10:32:57.481Z,96036.38
2023-02-23T10:35:27.629Z,96043.09
2023-02-23T10:37:56.039Z,96033.72
2023-02-23T10:40:27.688Z,96037.53
2023-02-23T10:42:57.409Z,96040.50
2023-02-23T10:45:29.046Z,96037.59
2023-02-23T10:48:00.025Z,96035.91
2023-02-23T10:50:28.988Z,96036.22
2023-02-23T10:53:00.232Z,96039.69
2023-02-23T10:55:30.474Z,96036.78
2023-02-23T10:58:09.921Z,96036.22
2023-02-23T11:00:41.607Z,96034.56
2023-02-23T11:03:19.753Z,96036.63
2023-02-23T11:05:53.017Z,96031.69
2023-02-23T11:08:24.308Z,96035.53
2023-02-23T11:11:09.013Z,96033.50
2023-02-23T11:13:39.569Z,96030.56
2023-02-23T11:16:11.246Z,96024.72
2023-02-23T11:18:41.094Z,96023.44
2023-02-23T11:21:19.815Z,96022.63
2023-02-23T11:23:51.404Z,96019.31
2023-02-23T11:26:28.937Z,96023.44
2023-02-23T11:28:59.453Z,96018.41
2023-02-23T11:31:34.633Z,96017.00
2023-02-23T11:34:05.434Z,96017.03
2023-02-23T11:36:34.345Z,96011.41
2023-02-23T11:39:19.781Z,96002.94
2023-02-23T11:41:48.035Z,96000.88
2023-02-23T11:44:24.085Z,96003.75
2023-02-23T11:46:53.866Z,96004.88
2023-02-23T11:49:24.871Z,95998.25
2023-02-23T11:51:54.446Z,95996.41
2023-02-23T11:54:26.872Z,95991.97
2023-02-23T11:56:57.935Z,95993.63
2023-02-23T11:59:31.078Z,95996.03
2023-02-23T12:02:06.983Z,95982.34
2023-02-23T12:04:38.057Z,95982.63
2023-02-23T12:07:27.348Z,95979.13
2023-02-23T12:10:00.620Z,95980.72
2023-02-23T12:12:29.948Z,95984.22
2023-02-23T12:15:01.797Z,95969.47
2023-02-23T12:17:36.924Z,95971.69
2023-02-23T12:20:11.088Z,95971.94
2023-02-23T12:22:41.617Z,95962.06
2023-02-23T12:25:16.856Z,95972.31
2023-02-23T12:27:50.621Z,95969.84
2023-02-23T12:30:22.405Z,95965.56
2023-02-23T12:32:57.879Z,95960.19
2023-02-23T12:35:31.177Z,95963.69
2023-02-23T12:38:02.309Z,95958.38
2023-02-23T12:40:34.203Z,95962.00
2023-02-23T12:43:06.616Z,95947.63
2023-02-23T12:45:40.677Z,95955.00
2023-02-23T12:48:16.185Z,95945.06
2023-02-23T12:50:48.282Z,95951.28
2023-02-23T12:53:21.658Z,95940.56
2023-02-23T12:56:05.456Z,95945.09
2023-02-23T12:58:41.223Z,95942.03
2023-02-23T13:01:12.243Z,95933.47
2023-02-23T13:03:59.263Z,95936.63
2023-02-23T13:06:31.354Z,95934.53
2023-02-23T13:09:06.030Z,95924.81
2023-02-23T13:11:48.215Z,95932.94
2023-02-23T13:14:21.983Z,95937.28
2023-02-23T13:16:53.522Z,95928.94
2023-02-23T13:19:26.041Z,95934.31
2023-02-23T13:21:56.271Z,95924.22
2023-02-23T13:24:27.347Z,95925.50
2023-02-23T13:27:00.798Z,95930.91
2023-02-23T13:29:35.604Z,95933.06
2023-02-23T13:32:06.217Z,95925.78
2023-02-23T13:34:37.638Z,95928.97
2023-02-23T13:37:07.745Z,95927.97
2023-02-23T13:39:47.732Z,95921.69
2023-02-23T13:42:22.767Z,95908.50
2023-02-23T13:44:54.616Z,95916.66
2023-02-23T13:47:35.014Z,95911.72
2023-02-23T13:50:09.039Z,95901.75
2023-02-23T13:52:40.602Z,95913.31
2023-02-23T13:55:49.846Z,95911.78
2023-02-23T13:58:20.477Z,95913.28
2023-02-23T14:00:54.939Z,95921.38
2023-02-23T14:03:25.582Z,95914.00
2023-02-23T14:05:58.638Z,95915.78
2023-02-23T14:08:31.598Z,95918.31
2023-02-23T14:10:59.986Z,95914.56
2023-02-23T14:13:31.162Z,95917.88
2023-02-23T14:16:17.592Z,95922.59
2023-02-23T14:19:06.663Z,95917.06
2023-02-23T14:21:38.620Z,95903.56
2023-02-23T14:24:18.035Z,95916.19
2023-02-23T14:27:03.458Z,95917.31
2023-02-23T14:29:33.014Z,95920.16
2023-02-23T14:32:29.087Z,95919.13
2023-02-23T14:34:58.493Z,95920.97
2023-02-23T14:37:32.303Z,95910.84
2023-02-23T14:40:13.728Z,95909.50
2023-02-23T14:42:42.747Z,95911.84
2023-02-23T14:45:20.525Z,95906.34
2023-02-23T14:47:49.649Z,95905.56
2023-02-23T14:50:25.359Z,95906.22
2023-02-23T14:52:56.815Z,95901.88
2023-02-23T14:55:29.240Z,95911.41
2023-02-23T14:57:58.414Z,95904.69
2023-02-23T15:00:28.635Z,95899.97
2023-02-23T15:02:58.360Z,95913.53
2023-02-23T15:05:29.006Z,95907.28
2023-02-23T15:08:04.614Z,95905.75
2023-02-23T15:10:35.006Z,95902.47
2023-02-23T15:13:09.872Z,95902.53
2023-02-23T15:15:45.534Z,95902.59
2023-02-23T15:18:22.171Z,95904.16
2023-02-23T15:20:50.652Z,95897.06
2023-02-23T15:23:21.948Z,95898.34
2023-02-23T15:25:51.389Z,95895.72
2023-02-23T15:28:25.334Z,95902.09
2023-02-23T15:30:54.680Z,95901.84
2023-02-23T15:33:28.321Z,95901.47
2023-02-23T15:35:58.274Z,95903.81
2023-02-23T15:38:45.742Z,95904.75
2023-02-23T15:41:19.270Z,95901.84
2023-02-23T15:43:47.777Z,95898.00
2023-02-23T15:46:23.942Z,95902.50
2023-02-23T15:48:53.369Z,95899.00
2023-02-23T15:51:26.099Z,95905.34
2023-02-23T15:53:56.192Z,95903.16
2023-02-23T15:56:26.643Z,95899.84
2023-02-23T15:58:58.198Z,95898.22
2023-02-23T16:01:27.914Z,95898.38
2023-02-23T16:04:00.505Z,95898.16
2023-02-23T16:06:34.286Z,95894.06
2023-02-23T16:09:20.749Z,95894.75
2023-02-23T16:11:54.084Z,95888.72
2023-02-23T16:14:24.097Z,95897.72
2023-02-23T16:17:09.938Z,95896.25
2023-02-23T16:19:41.052Z,95889.69
2023-02-23T16:22:21.181Z,95895.91
2023-02-23T16:25:00.162Z,95897.59
2023-02-23T16:27:29.801Z,95896.34
2023-02-23T16:30:01.051Z,95903.75
2023-02-23T16:32:38.041Z,95897.16
2023-02-23T16:35:16.716Z,95898.78
2023-02-23T16:37:54.800Z,95895.09
2023-02-23T16:40:24.418Z,95899.03
2023-02-23T16:42:54.040Z,95906.41
2023-02-23T16:45:23.187Z,95903.97
2023-02-23T16:47:52.854Z,95905.00
2023-02-23T16:50:24.244Z,95903.56
2023-02-23T16:52:54.286Z,95907.22
2023-02-23T16:55:26.503Z,95904.38
2023-02-23T16:57:56.782Z,95902.34
2023-02-23T17:00:26.339Z,95900.66
2023-02-23T17:02:55.581Z,95910.94
2023-02-23T17:05:24.751Z,95904.78
2023-02-23T17:07:53.194Z,95912.78
2023-02-23T17:10:26.931Z,95916.69
2023-02-23T17:13:02.562Z,95919.91
2023-02-23T17:15:33.853Z,95925.84
2023-02-23T17:18:02.085Z,95915.97
2023-02-23T17:20:30.573Z,95918.22
2023-02-23T17:22:59.938Z,95919.88
2023-02-23T17:25:28.670Z,95923.72
2023-02-23T17:28:00.683Z,95923.94
2023-02-23T17:30:30.034Z,95922.94
2023-02-23T17:32:59.450Z,95918.00
2023-02-23T17:35:28.387Z,95925.34
2023-02-23T17:37:56.628Z,95932.53
2023-02-23T17:40:28.748Z,95928.38
2023-02-23T17:43:00.512Z,95929.78
2023-02-23T17:45:29.275Z,95934.06
2023-02-23T17:47:57.994Z,95934.22
2023-02-23T17:50:28.067Z,95931.09
2023-02-23T17:52:56.417Z,95930.63
2023-02-23T17:55:26.184Z,95933.63
2023-02-23T17:57:54.900Z,95929.81
2023-02-23T18:00:25.311Z,95927.81
2023-02-23T18:02:53.630Z,95935.34
2023-02-23T18:05:22.596Z,95937.94
2023-02-23T18:07:50.821Z,95933.69
2023-02-23T18:10:19.220Z,95936.78
2023-02-23T18:12:47.442Z,95933.97
2023-02-23T18:15:17.457Z,95934.38
2023-02-23T18:17:47.199Z,95937.41
2023-02-23T18:20:17.074Z,95933.44
2023-02-23T18:22:45.839Z,95933.75
2023-02-23T18:25:21.481Z,95936.09
2023-02-23T18:27:53.958Z,95938.59
2023-02-23T18:30:24.557Z,95935.69
2023-02-23T18:32:57.160Z,95934.03
2023-02-23T18:35:25.485Z,95930.94
2023-02-23T18:37:53.825Z,95931.88
2023-02-23T18:40:23.910Z,95933.94
2023-02-23T18:42:52.260Z,95934.50
2023-02-23T18:45:20.499Z,95939.38
2023-02-23T18:47:48.859Z,95928.75
2023-02-23T18:50:19.664Z,95929.13
2023-02-23T18:52:48.927Z,95939.50
2023-02-23T18:55:18.149Z,95935.31
2023-02-23T18:57:47.974Z,95939.34
2023-02-23T19:00:18.447Z,95932.72
2023-02-23T19:02:47.385Z,95931.59
2023-02-23T19:05:16.467Z,95926.78
2023-02-23T19:07:46.201Z,95923.59
2023-02-23T19:10:16.382Z,95931.38
2023-02-23T19:12:44.829Z,95923.59
2023-02-23T19:15:13.399Z,95923.72
2023-02-23T19:17:41.625Z,95928.88
2023-02-23T19:20:14.133Z,95917.41
2023-02-23T19:22:42.902Z,95927.34
2023-02-23T19:25:14.546Z,95930.41
2023-02-23T19:27:43.459Z,95928.59
2023-02-23T19:30:14.430Z,95934.59
2023-02-23T19:32:43.660Z,95930.34
2023-02-23T19:35:15.139Z,95934.09
2023-02-23T19:37:50.884Z,95930.09
2023-02-23T19:40:22.852Z,95935.03
2023-02-23T19:42:53.141Z,95933.22
2023-02-23T19:45:22.382Z,95938.88
2023-02-23T19:47:52.791Z,95946.41
2023-02-23T19:50:21.531Z,95939.69
2023-02-23T19:52:50.321Z,95947.56
2023-02-23T19:55:21.107Z,95932.47
2023-02-23T19:57:49.366Z,95941.16
2023-02-23T20:00:18.415Z,95941.97
2023-02-23T20:02:54.763Z,95932.63
2023-02-23T20:05:25.586Z,95935.16
2023-02-23T20:07:54.662Z,95933.09
2023-02-23T20:10:25.862Z,95938.53
2023-02-23T20:12:54.171Z,95935.56
2023-02-23T20:15:22.788Z,95944.19
2023-02-23T20:17:51.241Z,95940.72
2023-02-23T20:20:21.600Z,95936.41
2023-02-23T20:22:53.120Z,95941.22
2023-02-23T20:25:22.789Z,95931.94
2023-02-23T20:27:52.377Z,95934.63
2023-02-23T20:30:21.290Z,95933.97
2023-02-23T20:32:50.022Z,95928.66
2023-02-23T20:35:19.585Z,95933.63
2023-02-23T20:37:48.092Z,95933.59
2023-02-23T20:40:18.659Z,95937.75
2023-02-23T20:42:47.743Z,95936.78
2023-02-23T20:45:19.288Z,95931.25
2023-02-23T20:47:47.592Z,95934.44
2023-02-23T20:50:16.040Z,95927.69
2023-02-23T20:52:45.932Z,95937.56
2023-02-23T20:55:19.229Z,95930.81
2023-02-23T20:57:48.587Z,95931.31
2023-02-23T21:00:22.756Z,95928.84
2023-02-23T21:02:55.292Z,95927.53
2023-02-23T21:05:25.291Z,95929.72
2023-02-23T21:07:58.720Z,95925.06
2023-02-23T21:10:29.808Z,95921.03
2023-02-23T21:12:58.141Z,95920.34
2023-02-23T21:15:29.143Z,95918.47
2023-02-23T21:17:58.296Z,95909.53
2023-02-23T21:20:27.471Z,95916.69
2023-02-23T21:22:56.191Z,95918.13
2023-02-23T21:25:26.474Z,95919.97
2023-02-23T21:27:55.136Z,95913.91
2023-02-23T21:30:28.584Z,95918.09
2023-02-23T21:32:59.571Z,95909.75
2023-02-23T21:35:27.983Z,95905.34
2023-02-23T21:37:56.863Z,95909.53
2023-02-23T21:40:25.229Z,95912.13
2023-02-23T21:42:53.628Z,95912.31
2023-02-23T21:45:21.906Z,95903.56
2023-02-23T21:47:50.442Z,95903.31
2023-02-23T21:50:21.157Z,95901.09
2023-02-23T21:52:51.158Z,95904.19
2023-02-23T21:55:22.856Z,95905.13
2023-02-23T21:57:51.834Z,95907.91
2023-02-23T22:00:20.879Z,95906.91
2023-02-23T22:02:49.302Z,95900.19
2023-02-23T22:05:19.593Z,95896.72
2023-02-23T22:07:53.392Z,95904.94
2023-02-23T22:10:23.366Z,95905.81
2023-02-23T22:12:55.924Z,95899.25
2023-02-23T22:15:27.620Z,95903.28
2023-02-23T22:17:56.736Z,95897.94
2023-02-23T22:20:25.404Z,95901.00
2023-02-23T22:22:55.007Z,95903.75
2023-02-23T22:25:23.259Z,95899.03
2023-02-23T22:27:51.518Z,95891.53
2023-02-23T22:30:22.402Z,95894.16
2023-02-23T22:32:51.066Z,95893.59
2023-02-23T22:35:19.511Z,95887.25
2023-02-23T22:37:48.023Z,95892.44
2023-02-23T22:40:18.213Z,95882.69
2023-02-23T22:42:49.081Z,95887.78
2023-02-23T22:45:17.924Z,95882.50
2023-02-23T22:47:46.163Z,95873.78
2023-02-23T22:50:18.070Z,95879.91
2023-02-23T22:52:47.593Z,95872.50
2023-02-23T22:55:19.232Z,95872.97
2023-02-23T22:57:47.649Z,95867.69
2023-02-23T23:00:17.420Z,95858.63
2023-02-23T23:02:45.669Z,95862.38
2023-02-23T23:05:14.585Z,95862.72
2023-02-23T23:07:46.329Z,95862.78
2023-02-23T23:10:15.347Z,95871.41
2023-02-23T23:12:44.961Z,95859.03
2023-02-23T23:15:18.996Z,95871.66
2023-02-23T23:17:49.192Z,95855.75
2023-02-23T23:20:22.982Z,95864.91
2023-02-23T23:22:51.289Z,95848.34
2023-02-23T23:25:22.838Z,95846.78
2023-02-23T23:27:53.608Z,95851.13
2023-02-23T23:30:25.884Z,95841.00
2023-02-23T23:32:54.486Z,95846.38
2023-02-23T23:35:23.201Z,95843.03
2023-02-23T23:37:52.021Z,95838.53
2023-02-23T23:40:24.362Z,95838.81
2023-02-23T23:42:55.420Z,95834.28
2023-02-23T23:45:25.826Z,95837.75
2023-02-23T23:47:54.123Z,95834.50
2023-02-23T23:50:26.868Z,95832.31
2023-02-23T23:52:55.504Z,95826.97
2023-02-23T23:55:23.791Z,95832.88
2023-02-23T23:57:52.185Z,95838.72
